sensor_id;sensor_type;location;lat;lon;timestamp;pressure;altitude;pressure_sealevel;temperature;humidity
59654;BME280;66556;52.008;5.432;2023-04-05T00:01:05;102508.99999999999;;;17.02;30.06
59654;BME280;66556;52.008;5.432;2023-04-05T00:02:42;102509.99999999999;;;17.11;29.81
59654;BME280;66556;52.008;5.432;2023-04-05T00:05:54;102508.0;;;16.71;30.38
59654;BME280;66556;52.008;5.432;2023-04-05T00:07:30;102504.0;;;16.7;30.35
59654;BME280;66556;52.008;5.432;2023-04-05T00:09:06;102501.0;;;16.84;30.22
59654;BME280;66556;52.008;5.432;2023-04-05T00:10:42;102506.0;;;16.81;30.47
59654;BME280;66556;52.008;5.432;2023-04-05T00:13:58;102505.0;;;16.5;30.82
59654;BME280;66556;52.008;5.432;2023-04-05T00:15:36;102507.0;;;16.88;29.99
59654;BME280;66556;52.008;5.432;2023-04-05T00:17:12;102500.0;;;16.86;30.13
59654;BME280;66556;52.008;5.432;2023-04-05T00:20:24;102505.0;;;16.47;30.4
59654;BME280;66556;52.008;5.432;2023-04-05T00:22:00;102499.0;;;16.45;30.66
59654;BME280;66556;52.008;5.432;2023-04-05T00:23:36;102498.0;;;16.3;30.77
59654;BME280;66556;52.008;5.432;2023-04-05T00:26:49;102497.0;;;16.52;30.24
59654;BME280;66556;52.008;5.432;2023-04-05T00:28:25;102490.00000000001;;;16.3;30.23
59654;BME280;66556;52.008;5.432;2023-04-05T00:30:01;102492.0;;;16.2;30.45
59654;BME280;66556;52.008;5.432;2023-04-05T00:31:37;102493.0;;;16.3;30.81
59654;BME280;66556;52.008;5.432;2023-04-05T00:34:49;102490.00000000001;;;16.36;30.43
59654;BME280;66556;52.008;5.432;2023-04-05T00:36:26;102491.00000000001;;;16.39;30.17
59654;BME280;66556;52.008;5.432;2023-04-05T00:38:02;102495.0;;;16.27;30.02
59654;BME280;66556;52.008;5.432;2023-04-05T00:41:14;102499.0;;;16.36;29.99
59654;BME280;66556;52.008;5.432;2023-04-05T00:42:50;102490.00000000001;;;16.45;29.84
59654;BME280;66556;52.008;5.432;2023-04-05T00:44:26;102486.99999999999;;;16.53;29.47
59654;BME280;66556;52.008;5.432;2023-04-05T00:47:40;102483.99999999999;;;16.34;29.82
59654;BME280;66556;52.008;5.432;2023-04-05T00:49:17;102483.0;;;16.18;30.2
59654;BME280;66556;52.008;5.432;2023-04-05T00:50:53;102483.0;;;15.94;30.35
59654;BME280;66556;52.008;5.432;2023-04-05T00:52:31;102483.99999999999;;;16.34;29.67
59654;BME280;66556;52.008;5.432;2023-04-05T00:55:45;102483.0;;;15.89;30.69
59654;BME280;66556;52.008;5.432;2023-04-05T00:57:22;102480.0;;;15.66;31.09
59654;BME280;66556;52.008;5.432;2023-04-05T00:58:58;102479.0;;;15.45;31.4
59654;BME280;66556;52.008;5.432;2023-04-05T01:02:17;102475.0;;;15.71;30.95
59654;BME280;66556;52.008;5.432;2023-04-05T01:04:04;102473.0;;;15.71;30.95
59654;BME280;66556;52.008;5.432;2023-04-05T01:05:46;102472.0;;;15.47;31.5
59654;BME280;66556;52.008;5.432;2023-04-05T01:07:30;102467.0;;;15.46;31.29
59654;BME280;66556;52.008;5.432;2023-04-05T01:10:55;102470.0;;;15.37;31.54
59654;BME280;66556;52.008;5.432;2023-04-05T01:12:34;102471.0;;;15.4;31.46
59654;BME280;66556;52.008;5.432;2023-04-05T01:14:13;102466.00000000001;;;15.57;31.24
59654;BME280;66556;52.008;5.432;2023-04-05T01:15:49;102465.00000000001;;;15.53;31.25
59654;BME280;66556;52.008;5.432;2023-04-05T01:19:04;102468.0;;;15.22;31.48
59654;BME280;66556;52.008;5.432;2023-04-05T01:20:45;102466.00000000001;;;15.36;31.54
59654;BME280;66556;52.008;5.432;2023-04-05T01:22:54;102464.00000000001;;;15.33;31.16
59654;BME280;66556;52.008;5.432;2023-04-05T01:25:48;102463.00000000001;;;15.37;30.94
59654;BME280;66556;52.008;5.432;2023-04-05T01:27:42;102464.00000000001;;;15.25;31.06
59654;BME280;66556;52.008;5.432;2023-04-05T01:29:37;102461.99999999999;;;14.95;31.41
59654;BME280;66556;52.008;5.432;2023-04-05T01:31:31;102458.0;;;14.55;32.39
59654;BME280;66556;52.008;5.432;2023-04-05T01:33:16;102456.0;;;14.69;32.04
59654;BME280;66556;52.008;5.432;2023-04-05T01:35:04;102448.0;;;15.23;30.81
59654;BME280;66556;52.008;5.432;2023-04-05T01:36:48;102453.0;;;15.05;31.43
59654;BME280;66556;52.008;5.432;2023-04-05T01:38:30;102453.0;;;14.98;31.6
59654;BME280;66556;52.008;5.432;2023-04-05T01:41:46;102451.0;;;14.88;31.85
59654;BME280;66556;52.008;5.432;2023-04-05T01:43:22;102450.0;;;15.08;31.32
59654;BME280;66556;52.008;5.432;2023-04-05T01:44:58;102453.0;;;15.09;31.01
59654;BME280;66556;52.008;5.432;2023-04-05T01:48:12;102449.0;;;15.17;30.74
59654;BME280;66556;52.008;5.432;2023-04-05T01:49:47;102446.0;;;15.11;30.63
59654;BME280;66556;52.008;5.432;2023-04-05T01:51:23;102449.0;;;15.19;30.66
59654;BME280;66556;52.008;5.432;2023-04-05T01:54:35;102450.0;;;14.93;31.6
59654;BME280;66556;52.008;5.432;2023-04-05T01:56:12;102448.0;;;14.95;31.5
59654;BME280;66556;52.008;5.432;2023-04-05T01:57:48;102450.0;;;15.12;31.13
59654;BME280;66556;52.008;5.432;2023-04-05T01:59:24;102443.0;;;14.85;31.0
59654;BME280;66556;52.008;5.432;2023-04-05T02:02:36;102442.0;;;14.79;31.48
59654;BME280;66556;52.008;5.432;2023-04-05T02:04:12;102443.0;;;14.59;32.24
59654;BME280;66556;52.008;5.432;2023-04-05T02:05:49;102438.00000000001;;;14.01;33.24
59654;BME280;66556;52.008;5.432;2023-04-05T02:09:02;102440.00000000001;;;14.03;33.58
59654;BME280;66556;52.008;5.432;2023-04-05T02:10:38;102436.99999999999;;;14.31;33.21
59654;BME280;66556;52.008;5.432;2023-04-05T02:12:14;102433.99999999999;;;13.77;33.71
59654;BME280;66556;52.008;5.432;2023-04-05T02:15:26;102433.99999999999;;;13.67;33.96
59654;BME280;66556;52.008;5.432;2023-04-05T02:17:02;102433.0;;;13.88;33.79
59654;BME280;66556;52.008;5.432;2023-04-05T02:18:38;102430.0;;;14.17;33.31
59654;BME280;66556;52.008;5.432;2023-04-05T02:21:51;102432.0;;;14.15;33.28
59654;BME280;66556;52.008;5.432;2023-04-05T02:23:29;102431.0;;;14.09;33.5
59654;BME280;66556;52.008;5.432;2023-04-05T02:25:05;102430.0;;;14.08;33.49
59654;BME280;66556;52.008;5.432;2023-04-05T02:26:42;102429.0;;;14.19;33.01
59654;BME280;66556;52.008;5.432;2023-04-05T02:29:55;102427.0;;;13.98;33.35
59654;BME280;66556;52.008;5.432;2023-04-05T02:31:31;102423.0;;;14.25;32.96
59654;BME280;66556;52.008;5.432;2023-04-05T02:33:08;102423.0;;;14.19;33.28
59654;BME280;66556;52.008;5.432;2023-04-05T02:36:20;102420.0;;;13.93;33.6
59654;BME280;66556;52.008;5.432;2023-04-05T02:37:56;102416.00000000001;;;13.84;33.69
59654;BME280;66556;52.008;5.432;2023-04-05T02:39:32;102417.0;;;13.8;33.57
59654;BME280;66556;52.008;5.432;2023-04-05T02:42:45;102423.0;;;13.7;33.97
59654;BME280;66556;52.008;5.432;2023-04-05T02:44:22;102423.0;;;13.83;33.64
59654;BME280;66556;52.008;5.432;2023-04-05T02:45:58;102423.0;;;13.92;33.42
59654;BME280;66556;52.008;5.432;2023-04-05T02:47:34;102417.0;;;13.83;33.67
59654;BME280;66556;52.008;5.432;2023-04-05T02:50:47;102417.0;;;13.93;33.28
59654;BME280;66556;52.008;5.432;2023-04-05T02:52:23;102417.0;;;13.88;33.24
59654;BME280;66556;52.008;5.432;2023-04-05T02:54:00;102418.0;;;13.72;33.71
59654;BME280;66556;52.008;5.432;2023-04-05T02:57:13;102417.0;;;13.79;33.49
59654;BME280;66556;52.008;5.432;2023-04-05T02:58:49;102411.99999999999;;;13.87;33.03
59654;BME280;66556;52.008;5.432;2023-04-05T03:00:25;102409.99999999999;;;14.0;32.74
59654;BME280;66556;52.008;5.432;2023-04-05T03:03:37;102407.0;;;14.02;32.56
59654;BME280;66556;52.008;5.432;2023-04-05T03:05:14;102399.0;;;13.95;32.49
59654;BME280;66556;52.008;5.432;2023-04-05T03:06:50;102397.0;;;13.94;32.55
59654;BME280;66556;52.008;5.432;2023-04-05T03:08:26;102394.0;;;13.76;32.69
59654;BME280;66556;52.008;5.432;2023-04-05T03:11:38;102394.0;;;13.63;33.17
59654;BME280;66556;52.008;5.432;2023-04-05T03:13:14;102394.0;;;13.76;33.08
59654;BME280;66556;52.008;5.432;2023-04-05T03:14:50;102394.0;;;13.75;33.14
59654;BME280;66556;52.008;5.432;2023-04-05T03:18:03;102388.0;;;13.6;33.21
59654;BME280;66556;52.008;5.432;2023-04-05T03:19:39;102387.0;;;13.65;33.15
59654;BME280;66556;52.008;5.432;2023-04-05T03:21:15;102389.0;;;13.48;33.42
59654;BME280;66556;52.008;5.432;2023-04-05T03:24:27;102386.0;;;13.39;33.44
59654;BME280;66556;52.008;5.432;2023-04-05T03:26:04;102386.0;;;13.56;33.39
59654;BME280;66556;52.008;5.432;2023-04-05T03:27:40;102383.0;;;13.3;34.05
59654;BME280;66556;52.008;5.432;2023-04-05T03:30:52;102380.0;;;13.45;33.57
59654;BME280;66556;52.008;5.432;2023-04-05T03:32:28;102380.0;;;13.48;33.32
59654;BME280;66556;52.008;5.432;2023-04-05T03:34:05;102386.0;;;13.32;33.4
59654;BME280;66556;52.008;5.432;2023-04-05T03:35:41;102391.0;;;13.33;33.56
59654;BME280;66556;52.008;5.432;2023-04-05T03:38:54;102387.0;;;13.36;33.14
59654;BME280;66556;52.008;5.432;2023-04-05T03:40:30;102386.0;;;13.52;33.04
59654;BME280;66556;52.008;5.432;2023-04-05T03:42:07;102382.0;;;13.58;32.57
59654;BME280;66556;52.008;5.432;2023-04-05T03:45:19;102383.0;;;13.62;32.92
59654;BME280;66556;52.008;5.432;2023-04-05T03:46:55;102378.0;;;13.89;32.21
59654;BME280;66556;52.008;5.432;2023-04-05T03:48:32;102377.0;;;13.62;32.87
59654;BME280;66556;52.008;5.432;2023-04-05T03:51:45;102380.0;;;13.43;32.83
59654;BME280;66556;52.008;5.432;2023-04-05T03:53:21;102376.0;;;13.46;32.92
59654;BME280;66556;52.008;5.432;2023-04-05T03:54:57;102378.0;;;13.67;32.46
59654;BME280;66556;52.008;5.432;2023-04-05T03:56:33;102377.0;;;13.49;32.89
59654;BME280;66556;52.008;5.432;2023-04-05T03:59:46;102380.0;;;13.35;33.31
59654;BME280;66556;52.008;5.432;2023-04-05T04:01:22;102382.0;;;13.19;33.56
59654;BME280;66556;52.008;5.432;2023-04-05T04:02:58;102378.0;;;13.02;33.93
59654;BME280;66556;52.008;5.432;2023-04-05T04:06:10;102382.0;;;13.12;33.53
59654;BME280;66556;52.008;5.432;2023-04-05T04:07:47;102378.0;;;12.75;34.05
59654;BME280;66556;52.008;5.432;2023-04-05T04:09:22;102377.0;;;12.72;34.51
59654;BME280;66556;52.008;5.432;2023-04-05T04:12:35;102373.0;;;12.75;34.17
59654;BME280;66556;52.008;5.432;2023-04-05T04:14:11;102372.0;;;12.91;34.31
59654;BME280;66556;52.008;5.432;2023-04-05T04:15:47;102376.0;;;12.78;34.24
59654;BME280;66556;52.008;5.432;2023-04-05T04:19:03;102372.0;;;12.89;33.99
59654;BME280;66556;52.008;5.432;2023-04-05T04:20:40;102371.0;;;12.53;34.46
59654;BME280;66556;52.008;5.432;2023-04-05T04:22:16;102370.0;;;12.66;34.43
59654;BME280;66556;52.008;5.432;2023-04-05T04:23:52;102369.0;;;12.67;34.42
59654;BME280;66556;52.008;5.432;2023-04-05T04:27:04;102368.0;;;12.78;34.08
59654;BME280;66556;52.008;5.432;2023-04-05T04:28:40;102371.0;;;12.8;33.72
59654;BME280;66556;52.008;5.432;2023-04-05T04:30:17;102369.0;;;12.66;33.56
59654;BME280;66556;52.008;5.432;2023-04-05T04:33:30;102371.0;;;12.72;33.61
59654;BME280;66556;52.008;5.432;2023-04-05T04:35:06;102376.0;;;12.47;33.99
59654;BME280;66556;52.008;5.432;2023-04-05T04:36:42;102377.0;;;11.65;35.86
59654;BME280;66556;52.008;5.432;2023-04-05T04:39:54;102369.0;;;11.4;36.74
59654;BME280;66556;52.008;5.432;2023-04-05T04:41:30;102371.0;;;11.49;36.31
59654;BME280;66556;52.008;5.432;2023-04-05T04:43:08;102367.0;;;11.42;36.6
59654;BME280;66556;52.008;5.432;2023-04-05T04:44:45;102370.0;;;11.24;37.11
59654;BME280;66556;52.008;5.432;2023-04-05T04:47:57;102371.0;;;11.43;36.93
59654;BME280;66556;52.008;5.432;2023-04-05T04:49:33;102375.0;;;11.79;36.17
59654;BME280;66556;52.008;5.432;2023-04-05T04:51:09;102371.0;;;12.01;35.58
59654;BME280;66556;52.008;5.432;2023-04-05T04:54:23;102369.0;;;12.2;35.39
59654;BME280;66556;52.008;5.432;2023-04-05T04:55:59;102370.0;;;11.95;35.94
59654;BME280;66556;52.008;5.432;2023-04-05T04:57:35;102370.0;;;11.96;35.81
59654;BME280;66556;52.008;5.432;2023-04-05T05:00:47;102375.0;;;12.01;35.37
59654;BME280;66556;52.008;5.432;2023-04-05T05:02:23;102375.0;;;12.1;35.21
59654;BME280;66556;52.008;5.432;2023-04-05T05:04:02;102374.0;;;12.17;34.92
59654;BME280;66556;52.008;5.432;2023-04-05T05:05:41;102368.0;;;12.11;34.92
59654;BME280;66556;52.008;5.432;2023-04-05T05:08:54;102373.0;;;12.02;34.97
59654;BME280;66556;52.008;5.432;2023-04-05T05:10:30;102376.0;;;12.13;34.68
59654;BME280;66556;52.008;5.432;2023-04-05T05:12:06;102372.0;;;12.09;34.74
59654;BME280;66556;52.008;5.432;2023-04-05T05:15:18;102365.0;;;12.02;35.1
59654;BME280;66556;52.008;5.432;2023-04-05T05:16:55;102371.0;;;11.98;35.32
59654;BME280;66556;52.008;5.432;2023-04-05T05:18:31;102369.0;;;11.84;35.89
59654;BME280;66556;52.008;5.432;2023-04-05T05:21:45;102372.0;;;11.94;35.56
59654;BME280;66556;52.008;5.432;2023-04-05T05:23:21;102363.0;;;12.12;35.22
59654;BME280;66556;52.008;5.432;2023-04-05T05:24:57;102369.0;;;11.94;35.69
59654;BME280;66556;52.008;5.432;2023-04-05T05:26:33;102364.0;;;12.05;35.56
59654;BME280;66556;52.008;5.432;2023-04-05T05:29:46;102360.0;;;11.87;36.14
59654;BME280;66556;52.008;5.432;2023-04-05T05:31:22;102368.0;;;12.18;35.67
59654;BME280;66556;52.008;5.432;2023-04-05T05:32:58;102360.0;;;12.78;35.04
59654;BME280;66556;52.008;5.432;2023-04-05T05:36:10;102360.0;;;12.61;34.76
59654;BME280;66556;52.008;5.432;2023-04-05T05:37:46;102363.0;;;12.52;35.1
59654;BME280;66556;52.008;5.432;2023-04-05T05:39:23;102362.0;;;12.33;35.57
59654;BME280;66556;52.008;5.432;2023-04-05T05:42:35;102363.0;;;12.37;35.78
59654;BME280;66556;52.008;5.432;2023-04-05T05:44:11;102362.0;;;12.35;36.06
59654;BME280;66556;52.008;5.432;2023-04-05T05:45:48;102361.0;;;12.47;35.83
59654;BME280;66556;52.008;5.432;2023-04-05T05:47:24;102361.0;;;12.71;35.64
59654;BME280;66556;52.008;5.432;2023-04-05T05:50:37;102367.0;;;12.53;35.93
59654;BME280;66556;52.008;5.432;2023-04-05T05:52:13;102371.0;;;12.55;36.07
59654;BME280;66556;52.008;5.432;2023-04-05T05:53:49;102365.0;;;12.68;35.82
59654;BME280;66556;52.008;5.432;2023-04-05T05:57:01;102369.0;;;12.81;35.85
59654;BME280;66556;52.008;5.432;2023-04-05T05:58:38;102368.0;;;12.96;35.46
59654;BME280;66556;52.008;5.432;2023-04-05T06:00:15;102372.0;;;13.18;35.25
59654;BME280;66556;52.008;5.432;2023-04-05T06:03:30;102369.0;;;13.27;35.14
59654;BME280;66556;52.008;5.432;2023-04-05T06:05:06;102368.0;;;13.62;34.47
59654;BME280;66556;52.008;5.432;2023-04-05T06:06:42;102373.0;;;13.48;34.64
59654;BME280;66556;52.008;5.432;2023-04-05T06:08:18;102374.0;;;13.6;34.71
59654;BME280;66556;52.008;5.432;2023-04-05T06:11:30;102372.0;;;13.46;34.92
59654;BME280;66556;52.008;5.432;2023-04-05T06:13:06;102371.0;;;13.9;34.37
59654;BME280;66556;52.008;5.432;2023-04-05T06:14:43;102369.0;;;13.98;34.33
59654;BME280;66556;52.008;5.432;2023-04-05T06:17:55;102368.0;;;14.35;34.44
59654;BME280;66556;52.008;5.432;2023-04-05T06:19:31;102372.0;;;14.71;33.75
59654;BME280;66556;52.008;5.432;2023-04-05T06:21:07;102370.0;;;15.34;32.78
59654;BME280;66556;52.008;5.432;2023-04-05T06:24:20;102374.0;;;15.42;32.08
59654;BME280;66556;52.008;5.432;2023-04-05T06:25:56;102374.0;;;15.5;32.31
59654;BME280;66556;52.008;5.432;2023-04-05T06:27:32;102369.0;;;15.37;32.32
59654;BME280;66556;52.008;5.432;2023-04-05T06:30:44;102371.0;;;15.87;31.86
59654;BME280;66556;52.008;5.432;2023-04-05T06:32:20;102373.0;;;16.45;31.42
59654;BME280;66556;52.008;5.432;2023-04-05T06:33:56;102374.0;;;16.68;31.19
59654;BME280;66556;52.008;5.432;2023-04-05T06:35:32;102378.0;;;16.64;30.9
59654;BME280;66556;52.008;5.432;2023-04-05T06:38:45;102371.0;;;16.86;30.71
59654;BME280;66556;52.008;5.432;2023-04-05T06:40:21;102373.0;;;16.98;30.56
59654;BME280;66556;52.008;5.432;2023-04-05T06:41:57;102377.0;;;17.12;30.17
59654;BME280;66556;52.008;5.432;2023-04-05T06:45:10;102373.0;;;17.45;30.08
59654;BME280;66556;52.008;5.432;2023-04-05T06:46:46;102376.0;;;17.02;31.44
59654;BME280;66556;52.008;5.432;2023-04-05T06:48:23;102374.0;;;17.84;30.73
59654;BME280;66556;52.008;5.432;2023-04-05T06:51:35;102374.0;;;17.97;30.08
59654;BME280;66556;52.008;5.432;2023-04-05T06:53:11;102374.0;;;18.43;31.48
59654;BME280;66556;52.008;5.432;2023-04-05T06:54:47;102378.0;;;18.29;29.34
59654;BME280;66556;52.008;5.432;2023-04-05T06:57:59;102381.0;;;18.38;31.01
59654;BME280;66556;52.008;5.432;2023-04-05T06:59:36;102375.0;;;18.55;29.68
59654;BME280;66556;52.008;5.432;2023-04-05T07:01:12;102380.0;;;18.64;29.16
59654;BME280;66556;52.008;5.432;2023-04-05T07:02:48;102371.0;;;18.81;30.25
59654;BME280;66556;52.008;5.432;2023-04-05T07:06:00;102373.0;;;18.84;28.08
59654;BME280;66556;52.008;5.432;2023-04-05T07:07:37;102371.0;;;18.88;28.73
59654;BME280;66556;52.008;5.432;2023-04-05T07:09:13;102373.0;;;18.86;28.26
59654;BME280;66556;52.008;5.432;2023-04-05T07:12:27;102371.0;;;19.3;28.22
59654;BME280;66556;52.008;5.432;2023-04-05T07:14:03;102369.0;;;19.43;27.84
59654;BME280;66556;52.008;5.432;2023-04-05T07:15:39;102371.0;;;19.79;28.35
59654;BME280;66556;52.008;5.432;2023-04-05T07:18:51;102368.0;;;20.65;27.94
59654;BME280;66556;52.008;5.432;2023-04-05T07:20:28;102368.0;;;20.64;26.38
59654;BME280;66556;52.008;5.432;2023-04-05T07:22:04;102370.0;;;20.83;26.97
59654;BME280;66556;52.008;5.432;2023-04-05T07:23:40;102372.0;;;20.72;26.73
59654;BME280;66556;52.008;5.432;2023-04-05T07:26:52;102368.0;;;21.85;23.12
59654;BME280;66556;52.008;5.432;2023-04-05T07:28:29;102363.0;;;21.07;24.7
59654;BME280;66556;52.008;5.432;2023-04-05T07:30:06;102361.0;;;21.59;24.52
59654;BME280;66556;52.008;5.432;2023-04-05T07:33:19;102365.0;;;22.03;23.78
59654;BME280;66556;52.008;5.432;2023-04-05T07:34:55;102364.0;;;22.05;24.21
59654;BME280;66556;52.008;5.432;2023-04-05T07:36:31;102361.0;;;22.14;25.25
59654;BME280;66556;52.008;5.432;2023-04-05T07:39:43;102357.0;;;21.28;24.2
59654;BME280;66556;52.008;5.432;2023-04-05T07:41:20;102356.0;;;21.53;25.67
59654;BME280;66556;52.008;5.432;2023-04-05T07:42:56;102358.0;;;21.79;25.62
59654;BME280;66556;52.008;5.432;2023-04-05T07:46:08;102356.0;;;22.66;24.77
59654;BME280;66556;52.008;5.432;2023-04-05T07:47:44;102355.0;;;22.87;23.49
59654;BME280;66556;52.008;5.432;2023-04-05T07:49:23;102357.0;;;23.18;23.54
59654;BME280;66556;52.008;5.432;2023-04-05T07:51:03;102364.0;;;22.75;23.03
59654;BME280;66556;52.008;5.432;2023-04-05T07:54:14;102357.0;;;22.53;23.34
59654;BME280;66556;52.008;5.432;2023-04-05T07:55:51;102355.0;;;23.05;22.87
59654;BME280;66556;52.008;5.432;2023-04-05T07:57:27;102355.0;;;23.27;22.95
59654;BME280;66556;52.008;5.432;2023-04-05T08:00:40;102352.0;;;23.17;22.74
59654;BME280;66556;52.008;5.432;2023-04-05T08:02:16;102348.0;;;23.49;22.47
59654;BME280;66556;52.008;5.432;2023-04-05T08:03:52;102347.0;;;23.32;21.44
59654;BME280;66556;52.008;5.432;2023-04-05T08:05:29;102347.0;;;23.08;21.47
59654;BME280;66556;52.008;5.432;2023-04-05T08:08:42;102346.0;;;23.55;20.72
59654;BME280;66556;52.008;5.432;2023-04-05T08:10:19;102348.0;;;22.85;22.84
59654;BME280;66556;52.008;5.432;2023-04-05T08:11:55;102348.0;;;22.55;24.0
59654;BME280;66556;52.008;5.432;2023-04-05T08:15:08;102349.0;;;22.55;21.76
59654;BME280;66556;52.008;5.432;2023-04-05T08:16:44;102347.0;;;23.06;21.8
59654;BME280;66556;52.008;5.432;2023-04-05T08:18:20;102348.0;;;22.92;22.01
59654;BME280;66556;52.008;5.432;2023-04-05T08:21:34;102349.0;;;22.91;22.29
59654;BME280;66556;52.008;5.432;2023-04-05T08:23:10;102355.0;;;22.73;21.12
59654;BME280;66556;52.008;5.432;2023-04-05T08:24:46;102352.0;;;23.11;21.96
59654;BME280;66556;52.008;5.432;2023-04-05T08:27:58;102352.0;;;22.61;22.15
59654;BME280;66556;52.008;5.432;2023-04-05T08:29:34;102347.0;;;22.81;22.5
59654;BME280;66556;52.008;5.432;2023-04-05T08:31:11;102350.0;;;22.3;22.38
59654;BME280;66556;52.008;5.432;2023-04-05T08:32:47;102349.0;;;22.56;22.71
59654;BME280;66556;52.008;5.432;2023-04-05T08:36:03;102345.0;;;22.98;22.84
59654;BME280;66556;52.008;5.432;2023-04-05T08:37:38;102344.0;;;23.6;23.1
59654;BME280;66556;52.008;5.432;2023-04-05T08:39:15;102346.0;;;23.25;22.77
59654;BME280;66556;52.008;5.432;2023-04-05T08:42:29;102348.0;;;23.01;20.72
59654;BME280;66556;52.008;5.432;2023-04-05T08:44:09;102345.0;;;22.59;20.74
59654;BME280;66556;52.008;5.432;2023-04-05T08:45:50;102338.0;;;23.01;20.16
59654;BME280;66556;52.008;5.432;2023-04-05T08:47:27;102335.0;;;23.18;20.3
59654;BME280;66556;52.008;5.432;2023-04-05T08:50:48;102333.0;;;23.54;20.29
59654;BME280;66556;52.008;5.432;2023-04-05T08:52:25;102335.0;;;23.6;20.25
59654;BME280;66556;52.008;5.432;2023-04-05T08:54:01;102334.0;;;23.59;20.89
59654;BME280;66556;52.008;5.432;2023-04-05T08:57:15;102337.0;;;23.47;19.62
59654;BME280;66556;52.008;5.432;2023-04-05T08:58:57;102337.0;;;23.69;19.52
59654;BME280;66556;52.008;5.432;2023-04-05T09:00:36;102333.0;;;23.47;20.05
59654;BME280;66556;52.008;5.432;2023-04-05T09:02:14;102335.0;;;23.54;20.3
59654;BME280;66556;52.008;5.432;2023-04-05T09:05:31;102339.0;;;23.53;20.37
59654;BME280;66556;52.008;5.432;2023-04-05T09:07:12;102328.0;;;23.21;20.16
59654;BME280;66556;52.008;5.432;2023-04-05T09:08:50;102331.0;;;23.41;19.29
59654;BME280;66556;52.008;5.432;2023-04-05T09:10:26;102330.0;;;23.38;19.45
59654;BME280;66556;52.008;5.432;2023-04-05T09:13:42;102330.0;;;24.03;20.8
59654;BME280;66556;52.008;5.432;2023-04-05T09:15:19;102327.0;;;23.12;19.5
59654;BME280;66556;52.008;5.432;2023-04-05T09:16:57;102328.0;;;23.42;20.62
59654;BME280;66556;52.008;5.432;2023-04-05T09:20:11;102330.0;;;23.19;19.66
59654;BME280;66556;52.008;5.432;2023-04-05T09:22:04;102331.0;;;23.44;19.75
59654;BME280;66556;52.008;5.432;2023-04-05T09:23:50;102330.0;;;22.9;21.33
59654;BME280;66556;52.008;5.432;2023-04-05T09:25:35;102330.0;;;23.75;18.75
59654;BME280;66556;52.008;5.432;2023-04-05T09:27:13;102330.0;;;23.64;20.0
59654;BME280;66556;52.008;5.432;2023-04-05T09:30:26;102328.0;;;24.1;18.75
59654;BME280;66556;52.008;5.432;2023-04-05T09:32:03;102321.0;;;23.41;18.56
59654;BME280;66556;52.008;5.432;2023-04-05T09:33:40;102324.0;;;24.91;19.37
59654;BME280;66556;52.008;5.432;2023-04-05T09:36:56;102330.0;;;24.71;18.07
59654;BME280;66556;52.008;5.432;2023-04-05T09:38:48;102327.0;;;24.65;17.18
59654;BME280;66556;52.008;5.432;2023-04-05T09:40:39;102324.0;;;24.68;18.45
59654;BME280;66556;52.008;5.432;2023-04-05T09:42:17;102330.0;;;24.68;18.86
59654;BME280;66556;52.008;5.432;2023-04-05T09:43:54;102321.0;;;24.05;17.25
59654;BME280;66556;52.008;5.432;2023-04-05T09:47:14;102325.0;;;23.78;20.36
59654;BME280;66556;52.008;5.432;2023-04-05T09:48:51;102323.0;;;23.31;17.37
59654;BME280;66556;52.008;5.432;2023-04-05T09:50:27;102318.0;;;23.21;18.37
59654;BME280;66556;52.008;5.432;2023-04-05T09:53:55;102318.0;;;23.83;17.77
59654;BME280;66556;52.008;5.432;2023-04-05T09:55:31;102316.0;;;24.21;18.71
59654;BME280;66556;52.008;5.432;2023-04-05T09:57:09;102317.0;;;24.59;17.29
59654;BME280;66556;52.008;5.432;2023-04-05T09:58:49;102318.0;;;24.49;18.31
59654;BME280;66556;52.008;5.432;2023-04-05T10:02:04;102311.0;;;25.08;16.31
59654;BME280;66556;52.008;5.432;2023-04-05T10:03:45;102311.0;;;25.14;16.5
59654;BME280;66556;52.008;5.432;2023-04-05T10:05:23;102312.0;;;25.57;18.53
59654;BME280;66556;52.008;5.432;2023-04-05T10:06:59;102314.0;;;25.25;16.36
59654;BME280;66556;52.008;5.432;2023-04-05T10:10:12;102305.0;;;25.35;17.45
59654;BME280;66556;52.008;5.432;2023-04-05T10:11:49;102307.0;;;24.99;18.66
59654;BME280;66556;52.008;5.432;2023-04-05T10:13:26;102308.0;;;24.84;17.0
59654;BME280;66556;52.008;5.432;2023-04-05T10:16:45;102303.0;;;25.13;17.02
59654;BME280;66556;52.008;5.432;2023-04-05T10:18:40;102297.0;;;24.94;17.07
59654;BME280;66556;52.008;5.432;2023-04-05T10:20:22;102293.0;;;25.21;18.04
59654;BME280;66556;52.008;5.432;2023-04-05T10:22:01;102292.0;;;25.13;19.02
59654;BME280;66556;52.008;5.432;2023-04-05T10:23:42;102298.0;;;24.9;16.79
59654;BME280;66556;52.008;5.432;2023-04-05T10:27:29;102288.0;;;24.28;18.5
59654;BME280;66556;52.008;5.432;2023-04-05T10:29:10;102289.0;;;25.22;20.14
59654;BME280;66556;52.008;5.432;2023-04-05T10:30:59;102283.0;;;25.37;19.09
59654;BME280;66556;52.008;5.432;2023-04-05T10:32:46;102285.0;;;25.51;20.36
59654;BME280;66556;52.008;5.432;2023-04-05T10:34:41;102284.0;;;24.87;17.03
59654;BME280;66556;52.008;5.432;2023-04-05T10:36:24;102278.0;;;25.83;17.07
59654;BME280;66556;52.008;5.432;2023-04-05T10:38:23;102284.0;;;25.16;18.25
59654;BME280;66556;52.008;5.432;2023-04-05T10:41:41;102283.0;;;24.92;18.32
59654;BME280;66556;52.008;5.432;2023-04-05T10:43:24;102277.0;;;24.5;19.47
59654;BME280;66556;52.008;5.432;2023-04-05T10:45:02;102275.0;;;25.63;18.22
59654;BME280;66556;52.008;5.432;2023-04-05T10:46:44;102272.0;;;25.85;18.18
59654;BME280;66556;52.008;5.432;2023-04-05T10:50:21;102267.0;;;26.15;19.32
59654;BME280;66556;52.008;5.432;2023-04-05T10:51:57;102269.0;;;25.56;17.41
59654;BME280;66556;52.008;5.432;2023-04-05T10:53:35;102268.0;;;25.96;16.93
59654;BME280;66556;52.008;5.432;2023-04-05T10:55:15;102264.0;;;25.91;17.07
59654;BME280;66556;52.008;5.432;2023-04-05T10:58:29;102266.0;;;26.04;17.11
59654;BME280;66556;52.008;5.432;2023-04-05T11:00:08;102261.0;;;25.79;16.59